Terminal Aerodrome Forecast
Issued by NWS

Home | Current Version | Previous Version | Text Only | Print | Product List | Glossary On
Versions: 1 2 3 4 5 6 7 8 9 10 11 12 13
000
FTUS41 KCAR 211400 AAA
TAFPQI
TAF AMD
KPQI 211429Z 2114/2212 19010G20KT P6SM SCT030
     FM220000 18013KT P6SM VCSH OVC015
     FM220400 16009KT 3SM -SHRA BR OVC008
      AMD LTD TO CLD VIS AND WIND=

USA.gov is the U.S. government's official web portal to all federal, state and local government web resources and services.